Time;durP1;ratioP1;P1;durP2;ratioP2;P2;SDS_P1;SDS_P2;PMS_P1;PMS_P2;Temp;Humidity;BMP_temperature;BMP_pressure;BME280_temperature;BME280_humidity;BME280_pressure;Samples;Min_cycle;Max_cycle;Signal;HPM_P1;HPM_P2
2023/04/14 00:02:23;;;;;;;5.97;2.08;;;6.60;66.40;;;;;;5060544;28;20123;-82
2023/04/14 00:04:52;;;;;;;8.13;2.30;;;6.60;66.50;;;;;;5094576;28;20391;-81
2023/04/14 00:07:18;;;;;;;4.70;2.00;;;6.60;66.60;;;;;;5094367;28;20036;-82
2023/04/14 00:09:44;;;;;;;7.28;2.40;;;6.50;66.60;;;;;;5077426;28;20044;-82
2023/04/14 00:12:09;;;;;;;4.13;2.05;;;6.50;66.80;;;;;;5094299;28;20059;-82
2023/04/14 00:14:35;;;;;;;4.30;2.17;;;6.40;67.00;;;;;;5074845;28;20036;-82
2023/04/14 00:17:01;;;;;;;5.53;2.22;;;6.40;67.10;;;;;;5060852;28;20072;-82
2023/04/14 00:19:26;;;;;;;8.13;2.55;;;6.30;67.30;;;;;;5077274;28;20084;-82
2023/04/14 00:21:52;;;;;;;6.10;2.10;;;6.30;67.40;;;;;;5084458;28;20039;-82
2023/04/14 00:24:18;;;;;;;8.75;2.20;;;6.20;67.50;;;;;;5076897;28;20104;-81
2023/04/14 00:26:43;;;;;;;4.90;1.95;;;6.10;67.60;;;;;;5060359;28;20059;-81
2023/04/14 00:29:09;;;;;;;6.57;2.40;;;6.10;67.70;;;;;;5044122;28;20403;-82
2023/04/14 00:31:35;;;;;;;8.52;2.13;;;6.10;67.70;;;;;;5027612;28;20501;-82
2023/04/14 00:34:00;;;;;;;5.40;2.10;;;6.00;67.80;;;;;;5076850;28;20126;-82
2023/04/14 00:36:26;;;;;;;6.65;1.88;;;6.00;68.00;;;;;;5043848;28;20047;-81
2023/04/14 00:38:52;;;;;;;6.90;2.30;;;5.90;68.30;;;;;;5065879;28;20491;-82
2023/04/14 00:41:18;;;;;;;7.47;2.30;;;5.90;68.60;;;;;;5077677;28;20467;-81
2023/04/14 00:43:43;;;;;;;4.82;2.30;;;5.90;68.80;;;;;;5076987;28;20032;-82
2023/04/14 00:46:09;;;;;;;7.40;2.25;;;5.90;69.10;;;;;;5040136;28;20047;-82
2023/04/14 00:48:35;;;;;;;10.85;3.25;;;5.80;69.10;;;;;;5023774;28;20036;-81
2023/04/14 00:51:01;;;;;;;6.65;1.83;;;5.80;69.20;;;;;;5040186;28;20480;-82
2023/04/14 00:53:27;;;;;;;4.97;2.42;;;5.80;69.40;;;;;;5040654;28;20043;-82
2023/04/14 00:55:53;;;;;;;6.47;2.35;;;5.70;69.60;;;;;;5042632;28;20395;-81
2023/04/14 00:58:19;;;;;;;6.10;2.00;;;5.70;70.10;;;;;;5058784;28;20040;-81
2023/04/14 01:00:51;;;;;;;5.78;1.90;;;5.70;70.60;;;;;;5075867;28;20040;-81
2023/04/14 01:03:16;;;;;;;9.27;2.50;;;5.70;70.80;;;;;;5060422;28;20040;-81
2023/04/14 01:05:42;;;;;;;35.30;13.27;;;5.70;70.60;;;;;;5058753;28;20101;-81
2023/04/14 01:08:08;;;;;;;49.85;19.60;;;5.70;70.50;;;;;;5042994;28;20109;-81
2023/04/14 01:10:40;;;;;;;60.78;23.95;;;5.70;70.30;;;;;;5093330;28;20126;-82
2023/04/14 01:13:20;;;;;;;12.57;5.45;;;5.70;70.30;;;;;;5092914;28;20044;-81
2023/04/14 01:15:58;;;;;;;6.47;3.00;;;5.60;70.30;;;;;;5059655;28;20442;-82
2023/04/14 01:18:44;;;;;;;10.57;2.50;;;5.60;70.30;;;;;;5081337;28;20119;-81
2023/04/14 01:21:16;;;;;;;7.03;3.08;;;5.60;70.40;;;;;;5092715;28;20135;-82
2023/04/14 01:24:09;;;;;;;7.00;2.83;;;5.60;70.40;;;;;;5072836;28;20033;-81
2023/04/14 01:26:37;;;;;;;7.10;2.35;;;5.50;70.60;;;;;;5055666;28;20135;-81
2023/04/14 01:29:27;;;;;;;8.27;2.75;;;5.50;70.50;;;;;;5023003;28;20059;-82
2023/04/14 01:32:02;;;;;;;7.78;2.92;;;5.50;70.60;;;;;;5039738;28;20049;-81
2023/04/14 01:34:33;;;;;;;6.90;2.95;;;5.50;70.70;;;;;;5075781;28;20071;-82
2023/04/14 01:37:06;;;;;;;9.15;3.67;;;5.40;70.70;;;;;;5075869;28;20048;-82
2023/04/14 01:39:37;;;;;;;5.65;2.75;;;5.40;70.80;;;;;;5059168;28;20036;-81
2023/04/14 01:42:07;;;;;;;7.28;2.40;;;5.40;71.10;;;;;;5075647;28;20449;-81
2023/04/14 01:44:35;;;;;;;8.43;2.70;;;5.30;71.10;;;;;;5072387;28;20391;-81
2023/04/14 01:47:04;;;;;;;9.20;3.17;;;5.30;71.20;;;;;;5083099;28;20040;-81
2023/04/14 01:49:34;;;;;;;9.02;2.90;;;5.30;71.70;;;;;;5084229;28;20074;-81
2023/04/14 01:52:01;;;;;;;8.45;3.00;;;5.30;72.00;;;;;;5059268;28;20062;-82
2023/04/14 01:54:28;;;;;;;7.95;3.28;;;5.30;71.90;;;;;;5075417;28;20040;-81
2023/04/14 01:56:55;;;;;;;5.18;2.28;;;5.30;71.80;;;;;;5059249;28;20433;-81
2023/04/14 01:59:23;;;;;;;7.97;3.08;;;5.30;71.80;;;;;;5058682;28;20051;-81
2023/04/14 02:01:50;;;;;;;6.90;2.20;;;5.30;71.70;;;;;;5075164;28;20102;-81
2023/04/14 02:04:20;;;;;;;7.32;2.83;;;5.20;71.70;;;;;;5047509;28;20036;-81
2023/04/14 02:06:48;;;;;;;9.25;2.47;;;5.30;71.90;;;;;;5092241;28;20040;-81
2023/04/14 02:09:15;;;;;;;8.07;2.80;;;5.20;72.10;;;;;;5092250;28;20048;-81
2023/04/14 02:11:43;;;;;;;7.63;2.83;;;5.20;72.30;;;;;;5075540;28;20043;-81
2023/04/14 02:14:11;;;;;;;5.47;2.78;;;5.20;72.50;;;;;;5062638;28;20134;-82
2023/04/14 02:16:38;;;;;;;7.20;2.70;;;5.30;72.50;;;;;;5075477;28;20487;-81
2023/04/14 02:19:04;;;;;;;7.38;2.78;;;5.20;72.40;;;;;;5092162;28;20043;-82
2023/04/14 02:21:33;;;;;;;5.97;2.38;;;5.20;72.50;;;;;;5058851;28;20126;-81
2023/04/14 02:23:59;;;;;;;8.65;2.25;;;5.20;72.70;;;;;;5086158;28;20040;-82
2023/04/14 02:26:29;;;;;;;6.70;2.70;;;5.20;72.60;;;;;;5038597;28;20487;-82
2023/04/14 02:29:10;;;;;;;6.88;2.50;;;5.20;72.50;;;;;;5055083;28;20045;-81
2023/04/14 02:31:41;;;;;;;6.53;2.92;;;5.20;72.50;;;;;;5055062;28;20102;-82
2023/04/14 02:34:10;;;;;;;5.38;2.25;;;5.20;72.60;;;;;;5038462;28;20059;-82
2023/04/14 02:36:44;;;;;;;9.00;3.20;;;5.20;72.70;;;;;;5055148;28;20127;-82
2023/04/14 02:39:20;;;;;;;6.97;2.70;;;5.20;73.10;;;;;;5038474;28;20127;-82
2023/04/14 02:41:49;;;;;;;5.68;2.50;;;5.20;73.10;;;;;;5075024;28;20071;-82
2023/04/14 02:44:23;;;;;;;6.65;2.28;;;5.20;73.00;;;;;;5085406;28;20098;-81
2023/04/14 02:47:02;;;;;;;5.03;2.40;;;5.20;73.00;;;;;;5055434;28;20036;-82
2023/04/14 02:49:42;;;;;;;7.43;2.42;;;5.20;72.90;;;;;;5038589;28;20406;-82
2023/04/14 02:52:14;;;;;;;11.30;2.72;;;5.20;73.30;;;;;;5055002;28;20041;-82
2023/04/14 02:54:42;;;;;;;6.35;2.13;;;5.20;72.90;;;;;;5054986;28;20408;-82
2023/04/14 02:57:08;;;;;;;9.32;3.30;;;5.10;72.80;;;;;;5038297;28;20051;-82
2023/04/14 02:59:35;;;;;;;6.97;2.42;;;5.10;73.10;;;;;;5055078;28;20106;-82
2023/04/14 03:02:04;;;;;;;8.50;2.65;;;5.10;73.20;;;;;;5038202;28;20037;-82
2023/04/14 03:04:32;;;;;;;7.30;3.10;;;5.10;73.20;;;;;;5070627;28;20491;-82
2023/04/14 03:06:59;;;;;;;7.40;2.60;;;5.10;73.20;;;;;;5058399;28;20072;-82
2023/04/14 03:09:26;;;;;;;7.75;2.67;;;5.10;73.50;;;;;;5058163;28;20106;-82
2023/04/14 03:11:56;;;;;;;6.18;2.03;;;5.10;74.00;;;;;;5075064;28;20040;-82
2023/04/14 03:14:22;;;;;;;4.55;2.33;;;5.10;74.30;;;;;;5058204;28;20372;-81
2023/04/14 03:16:53;;;;;;;4.55;2.40;;;5.10;74.30;;;;;;5074693;28;20049;-82
2023/04/14 03:19:22;;;;;;;3.90;2.22;;;5.10;74.50;;;;;;5027572;28;20075;-82
2023/04/14 03:21:49;;;;;;;6.45;2.53;;;5.10;74.60;;;;;;5078253;28;20040;-82
2023/04/14 03:24:23;;;;;;;6.93;2.35;;;5.20;74.80;;;;;;5078409;28;20044;-82
2023/04/14 03:26:56;;;;;;;7.30;2.28;;;5.20;74.70;;;;;;5061666;28;20422;-81
2023/04/14 03:29:25;;;;;;;6.63;2.20;;;5.20;74.80;;;;;;5088422;28;20051;-82
2023/04/14 03:31:55;;;;;;;7.15;2.85;;;5.20;74.80;;;;;;5095174;28;20073;-82
2023/04/14 03:34:26;;;;;;;5.90;2.40;;;5.30;74.90;;;;;;5078165;28;20043;-81
2023/04/14 03:36:55;;;;;;;6.50;2.35;;;5.40;75.00;;;;;;5078106;28;20125;-82
2023/04/14 03:39:24;;;;;;;5.72;2.53;;;5.40;74.90;;;;;;5062008;28;20054;-82
2023/04/14 03:41:50;;;;;;;4.72;1.60;;;5.40;74.90;;;;;;5061736;28;20051;-81
2023/04/14 03:44:18;;;;;;;4.70;1.83;;;5.50;74.90;;;;;;5094854;28;20502;-81
2023/04/14 03:46:43;;;;;;;4.50;2.03;;;5.50;74.80;;;;;;5095031;28;20043;-82
2023/04/14 03:49:14;;;;;;;5.05;2.20;;;5.50;74.70;;;;;;5061108;28;20403;-82
2023/04/14 03:51:42;;;;;;;5.20;2.38;;;5.50;74.70;;;;;;5061080;28;20043;-81
2023/04/14 03:54:10;;;;;;;5.38;1.98;;;5.50;74.50;;;;;;5061292;28;20134;-82
2023/04/14 03:56:40;;;;;;;4.80;1.70;;;5.50;74.50;;;;;;5081138;28;20134;-82
2023/04/14 03:59:11;;;;;;;4.28;1.75;;;5.60;74.50;;;;;;5094668;28;20040;-82
2023/04/14 04:01:39;;;;;;;6.90;1.75;;;5.60;74.40;;;;;;5077620;28;20044;-82
2023/04/14 04:04:06;;;;;;;8.30;2.42;;;5.60;74.30;;;;;;5072733;28;20032;-82
2023/04/14 04:06:33;;;;;;;4.50;2.10;;;5.70;74.30;;;;;;5077401;28;20054;-82
2023/04/14 04:09:01;;;;;;;4.07;2.08;;;5.70;73.90;;;;;;5077600;28;20039;-82
2023/04/14 04:11:28;;;;;;;4.05;2.15;;;5.70;73.20;;;;;;5077609;28;20079;-83
2023/04/14 04:13:55;;;;;;;3.45;1.80;;;5.60;72.90;;;;;;5043922;28;20040;-82
2023/04/14 04:16:24;;;;;;;3.78;1.80;;;5.60;72.80;;;;;;5077236;28;20040;-82
2023/04/14 04:18:50;;;;;;;3.92;1.40;;;5.60;72.90;;;;;;5073817;28;20093;-82
2023/04/14 04:21:18;;;;;;;3.13;1.60;;;5.60;73.00;;;;;;5093970;28;20122;-82
2023/04/14 04:23:53;;;;;;;5.00;2.40;;;5.60;73.10;;;;;;5077467;28;20439;-82
2023/04/14 04:26:18;;;;;;;5.30;2.20;;;5.60;72.80;;;;;;5076980;28;20055;-82
2023/04/14 04:28:45;;;;;;;4.65;2.15;;;5.50;72.70;;;;;;5077057;28;20044;-82
2023/04/14 04:31:12;;;;;;;5.00;1.73;;;5.50;72.50;;;;;;5092384;28;20051;-82
2023/04/14 04:33:38;;;;;;;4.38;2.00;;;5.50;72.20;;;;;;5093859;28;20047;-82
2023/04/14 04:36:05;;;;;;;3.30;1.80;;;5.40;72.20;;;;;;5094180;28;20102;-82
2023/04/14 04:38:31;;;;;;;7.35;2.00;;;5.40;72.50;;;;;;5076898;28;20036;-82
2023/04/14 04:40:56;;;;;;;5.88;1.98;;;5.40;72.80;;;;;;5093880;28;20131;-82
2023/04/14 04:43:22;;;;;;;6.30;2.20;;;5.40;73.00;;;;;;5076744;28;20471;-82
2023/04/14 04:45:57;;;;;;;5.53;2.15;;;5.30;73.20;;;;;;5041282;28;20051;-82
2023/04/14 04:48:22;;;;;;;;;;;5.40;73.50;;;;;;5067104;28;20089;-83
2023/04/14 04:50:48;;;;;;;7.70;2.10;;;5.40;73.40;;;;;;5059996;28;20482;-81
2023/04/14 04:53:14;;;;;;;4.95;1.90;;;5.30;73.40;;;;;;5093766;28;20047;-82
2023/04/14 04:55:40;;;;;;;4.80;1.90;;;5.40;73.60;;;;;;5093591;28;20491;-82
2023/04/14 04:58:09;;;;;;;5.45;2.22;;;5.40;73.60;;;;;;5093293;28;20093;-82
2023/04/14 05:00:35;;;;;;;6.30;2.33;;;5.40;73.50;;;;;;5060418;28;20048;-82
2023/04/14 05:03:00;;;;;;;6.18;2.75;;;5.40;73.10;;;;;;5056893;28;20369;-82
2023/04/14 05:05:26;;;;;;;6.50;2.20;;;5.40;72.90;;;;;;5076794;28;20050;-82
2023/04/14 05:07:52;;;;;;;8.88;2.78;;;5.30;72.70;;;;;;5060296;28;20480;-82
2023/04/14 05:10:18;;;;;;;4.57;2.60;;;5.30;72.80;;;;;;5076605;28;20499;-81
2023/04/14 05:12:43;;;;;;;7.20;3.17;;;5.30;72.80;;;;;;5076552;28;20043;-81
2023/04/14 05:15:09;;;;;;;7.82;2.20;;;5.30;72.90;;;;;;5075976;28;20562;-82
2023/04/14 05:17:36;;;;;;;8.43;2.60;;;5.30;73.00;;;;;;5076306;28;20040;-82
2023/04/14 05:20:04;;;;;;;6.25;2.33;;;5.20;73.20;;;;;;5092656;28;20074;-82
2023/04/14 05:22:31;;;;;;;7.30;2.55;;;5.20;73.50;;;;;;5067658;28;20556;-82
2023/04/14 05:24:57;;;;;;;5.78;2.72;;;5.30;73.80;;;;;;5059361;28;20093;-82
2023/04/14 05:27:22;;;;;;;9.32;3.55;;;5.30;74.00;;;;;;5059030;28;20048;-82
2023/04/14 05:29:48;;;;;;;7.40;2.85;;;5.20;74.30;;;;;;5059065;28;20051;-82
2023/04/14 05:32:14;;;;;;;7.72;2.75;;;5.30;74.60;;;;;;5059081;28;20083;-82
2023/04/14 05:34:40;;;;;;;9.80;3.40;;;5.40;74.70;;;;;;5059198;28;20051;-82
2023/04/14 05:37:06;;;;;;;7.95;2.88;;;5.40;74.80;;;;;;5040863;28;20097;-83
2023/04/14 05:39:32;;;;;;;7.18;2.80;;;5.40;74.60;;;;;;5092458;28;20039;-83
2023/04/14 05:41:58;;;;;;;8.93;3.67;;;5.50;74.50;;;;;;5075285;28;20040;-83
2023/04/14 05:44:24;;;;;;;8.75;3.63;;;5.60;74.50;;;;;;5092684;28;20126;-83
2023/04/14 05:46:50;;;;;;;9.27;2.85;;;5.60;74.40;;;;;;5092479;28;20118;-82
2023/04/14 05:49:16;;;;;;;10.27;3.33;;;5.70;74.40;;;;;;5065436;28;20083;-83
2023/04/14 05:51:42;;;;;;;8.65;2.95;;;5.80;74.60;;;;;;5045145;28;20119;-83
2023/04/14 05:54:08;;;;;;;5.07;2.38;;;5.90;74.80;;;;;;5055275;28;20155;-83
2023/04/14 05:56:33;;;;;;;5.97;2.67;;;6.10;75.20;;;;;;5038758;28;20044;-83
2023/04/14 05:59:00;;;;;;;6.85;2.83;;;6.30;75.20;;;;;;5022261;28;20040;-83
2023/04/14 06:01:26;;;;;;;7.22;2.60;;;6.50;75.00;;;;;;5038593;28;20040;-83
2023/04/14 06:03:51;;;;;;;5.35;2.50;;;6.80;74.70;;;;;;5038512;28;20043;-83
2023/04/14 06:06:18;;;;;;;9.95;3.13;;;7.00;74.70;;;;;;5069540;28;20063;-83
2023/04/14 06:08:44;;;;;;;8.68;2.80;;;7.50;74.10;;;;;;5042100;28;20036;-84
2023/04/14 06:11:10;;;;;;;7.65;3.10;;;7.90;73.30;;;;;;5074131;28;20036;-84
2023/04/14 06:13:36;;;;;;;6.53;2.50;;;8.30;72.40;;;;;;5058700;28;20075;-82
2023/04/14 06:16:02;;;;;;;6.38;2.45;;;8.70;70.80;;;;;;5062617;28;20085;-83
2023/04/14 06:18:28;;;;;;;7.55;2.88;;;8.90;69.30;;;;;;5070753;28;20101;-83
2023/04/14 06:20:53;;;;;;;5.55;2.50;;;9.20;68.60;;;;;;5058287;28;20036;-83
2023/04/14 06:23:20;;;;;;;8.13;3.17;;;9.40;68.10;;;;;;5058410;28;20487;-80
2023/04/14 06:25:46;;;;;;;7.85;2.35;;;9.70;67.40;;;;;;5025909;28;20415;-83
2023/04/14 06:28:12;;;;;;;5.97;2.50;;;10.00;67.00;;;;;;5058187;28;20483;-75
2023/04/14 06:30:38;;;;;;;6.60;2.70;;;10.30;66.30;;;;;;5038127;28;20059;-75
2023/04/14 06:33:03;;;;;;;6.68;2.60;;;10.50;65.10;;;;;;5037949;28;20045;-75
2023/04/14 06:35:30;;;;;;;7.15;3.10;;;10.80;64.40;;;;;;5039861;28;20067;-75
2023/04/14 06:37:56;;;;;;;8.20;3.33;;;11.10;62.90;;;;;;5071671;28;20099;-75
2023/04/14 06:40:22;;;;;;;6.20;2.78;;;11.30;61.90;;;;;;5037810;28;20515;-75
2023/04/14 06:42:48;;;;;;;11.60;3.75;;;11.50;61.20;;;;;;5029776;28;20028;-75
2023/04/14 06:45:14;;;;;;;7.47;3.33;;;11.60;60.50;;;;;;5073877;28;20088;-76
2023/04/14 06:47:39;;;;;;;8.38;3.22;;;11.70;59.80;;;;;;5038375;28;20107;-75
2023/04/14 06:50:05;;;;;;;8.73;2.97;;;11.90;59.50;;;;;;5054580;28;20044;-74
2023/04/14 06:52:31;;;;;;;6.70;3.03;;;12.00;59.00;;;;;;5056543;28;20036;-78
2023/04/14 06:54:57;;;;;;;8.85;3.10;;;12.10;58.60;;;;;;5060451;28;20036;-75
2023/04/14 06:57:22;;;;;;;7.63;3.17;;;12.20;58.40;;;;;;5060820;28;20066;-75
2023/04/14 06:59:48;;;;;;;8.43;2.70;;;12.30;57.60;;;;;;5078447;28;20085;-75
2023/04/14 07:02:14;;;;;;;7.57;3.45;;;12.50;57.40;;;;;;5078104;28;20495;-75
2023/04/14 07:04:40;;;;;;;6.78;3.17;;;12.60;57.30;;;;;;5061445;28;20036;-75
2023/04/14 07:07:05;;;;;;;6.38;2.92;;;12.80;57.20;;;;;;5078115;28;20051;-75
2023/04/14 07:09:31;;;;;;;5.95;3.20;;;13.10;56.70;;;;;;5061381;28;20093;-75
2023/04/14 07:11:57;;;;;;;8.18;3.15;;;13.30;56.50;;;;;;5061617;28;20059;-76
2023/04/14 07:14:23;;;;;;;6.82;2.90;;;13.60;56.20;;;;;;5077981;28;20509;-75
2023/04/14 07:16:50;;;;;;;6.53;2.58;;;14.00;55.80;;;;;;5067838;28;20040;-76
2023/04/14 07:19:16;;;;;;;8.85;2.97;;;14.40;55.00;;;;;;5094694;28;20042;-76
2023/04/14 07:21:44;;;;;;;8.50;3.13;;;14.70;53.90;;;;;;5061163;28;20130;-76
2023/04/14 07:24:10;;;;;;;9.40;3.38;;;14.90;53.00;;;;;;5084287;28;20094;-75
2023/04/14 07:26:36;;;;;;;7.68;2.47;;;15.00;51.90;;;;;;5057461;28;20057;-76
2023/04/14 07:29:02;;;;;;;5.05;2.60;;;15.10;51.90;;;;;;5073863;28;20201;-76
2023/04/14 07:31:30;;;;;;;7.78;2.30;;;15.20;52.10;;;;;;5044418;28;20046;-76
2023/04/14 07:33:55;;;;;;;8.98;2.72;;;15.40;52.10;;;;;;5077633;28;20040;-76
2023/04/14 07:36:21;;;;;;;10.13;3.20;;;15.50;51.10;;;;;;5077763;28;20046;-76
2023/04/14 07:38:49;;;;;;;9.20;2.95;;;15.60;50.40;;;;;;5044481;28;20497;-76
2023/04/14 07:41:15;;;;;;;8.18;2.70;;;15.60;49.60;;;;;;5091147;28;20408;-76
2023/04/14 07:43:41;;;;;;;7.38;2.50;;;15.60;48.50;;;;;;5094459;28;20097;-76
2023/04/14 07:46:07;;;;;;;6.40;2.50;;;15.50;48.20;;;;;;5077028;28;20036;-75
2023/04/14 07:48:34;;;;;;;8.50;2.53;;;15.40;48.00;;;;;;5060660;28;20032;-76
2023/04/14 07:51:00;;;;;;;6.10;2.42;;;15.40;47.30;;;;;;5077533;28;20383;-76
2023/04/14 07:53:26;;;;;;;8.45;2.80;;;15.40;48.50;;;;;;5094114;28;20043;-76
2023/04/14 07:55:52;;;;;;;7.10;2.42;;;15.60;50.30;;;;;;5090271;28;20044;-76
2023/04/14 07:58:17;;;;;;;7.28;2.28;;;15.80;49.40;;;;;;5032211;28;20110;-75
2023/04/14 08:00:43;;;;;;;6.47;2.50;;;16.10;48.80;;;;;;5024021;28;20078;-76
2023/04/14 08:03:09;;;;;;;8.52;3.00;;;16.40;47.40;;;;;;5057656;28;20476;-76
2023/04/14 08:05:35;;;;;;;6.35;1.80;;;16.50;45.50;;;;;;5060428;28;20046;-76
2023/04/14 08:08:00;;;;;;;7.00;2.70;;;16.50;46.30;;;;;;5060419;28;20080;-76
2023/04/14 08:10:26;;;;;;;11.13;3.10;;;16.50;46.40;;;;;;5060386;28;20036;-76
2023/04/14 08:12:52;;;;;;;7.18;1.98;;;16.70;45.60;;;;;;5074659;28;20091;-76
2023/04/14 08:15:18;;;;;;;3.97;1.77;;;16.80;45.50;;;;;;5040341;28;20032;-76
2023/04/14 08:17:44;;;;;;;6.75;2.33;;;16.90;45.40;;;;;;5040220;28;20076;-76
2023/04/14 08:20:10;;;;;;;7.00;2.42;;;17.00;44.10;;;;;;5056788;28;20064;-76
2023/04/14 08:22:35;;;;;;;8.45;2.45;;;17.20;44.50;;;;;;5069021;28;20082;-76
2023/04/14 08:25:01;;;;;;;8.27;2.92;;;17.30;43.70;;;;;;5076928;28;20536;-76
2023/04/14 08:27:27;;;;;;;7.38;2.53;;;17.40;43.20;;;;;;5059818;28;20576;-76
2023/04/14 08:29:53;;;;;;;10.20;2.60;;;17.40;43.30;;;;;;5076494;28;20047;-76
2023/04/14 08:32:19;;;;;;;7.15;2.75;;;17.50;43.60;;;;;;5060316;28;20118;-76
2023/04/14 08:34:45;;;;;;;9.02;2.90;;;17.60;42.70;;;;;;5059784;28;20460;-76
2023/04/14 08:37:10;;;;;;;5.97;2.30;;;17.70;42.80;;;;;;5056333;28;20131;-76
2023/04/14 08:39:36;;;;;;;6.03;2.28;;;17.80;43.20;;;;;;5056288;28;20048;-76
2023/04/14 08:42:02;;;;;;;8.02;2.33;;;18.00;42.30;;;;;;5023234;28;20052;-76
2023/04/14 08:44:28;;;;;;;6.00;2.42;;;17.90;41.20;;;;;;5039631;28;20044;-76
2023/04/14 08:46:54;;;;;;;11.55;3.15;;;17.80;41.20;;;;;;5056354;28;20041;-76
2023/04/14 08:49:43;;;;;;;8.00;2.45;;;17.70;41.00;;;;;;5073039;28;20047;-76
2023/04/14 08:52:13;;;;;;;6.18;2.00;;;17.80;42.50;;;;;;5076308;28;20391;-76
2023/04/14 08:54:40;;;;;;;7.10;2.33;;;17.80;42.80;;;;;;5076059;28;20121;-76
2023/04/14 08:57:11;;;;;;;6.78;2.30;;;18.00;41.70;;;;;;5075917;28;20055;-76
2023/04/14 08:59:37;;;;;;;6.63;2.17;;;18.10;42.30;;;;;;5093181;28;20039;-76
2023/04/14 09:02:06;;;;;;;6.57;1.60;;;18.10;41.20;;;;;;5075587;28;20040;-76
2023/04/14 09:04:34;;;;;;;7.93;2.15;;;18.10;40.60;;;;;;5059484;28;20044;-76
2023/04/14 09:07:01;;;;;;;8.40;2.42;;;18.20;39.80;;;;;;5059151;28;20202;-76
2023/04/14 09:09:29;;;;;;;10.82;3.33;;;18.30;40.80;;;;;;5075772;28;20047;-76
2023/04/14 09:11:56;;;;;;;7.93;2.28;;;18.30;41.50;;;;;;5076079;28;20426;-76
2023/04/14 09:14:22;;;;;;;6.47;2.53;;;18.40;41.10;;;;;;5076040;28;20087;-76
2023/04/14 09:16:52;;;;;;;8.73;2.30;;;18.40;40.30;;;;;;5085556;28;20054;-76
2023/04/14 09:19:20;;;;;;;8.35;3.63;;;18.40;39.60;;;;;;5075650;28;20535;-76
2023/04/14 09:21:46;;;;;;;6.32;2.22;;;18.10;39.20;;;;;;5092335;28;20127;-75
2023/04/14 09:24:14;;;;;;;6.22;2.42;;;17.90;39.30;;;;;;5083592;28;20166;-75
2023/04/14 09:26:39;;;;;;;8.25;2.72;;;17.70;39.20;;;;;;5058040;28;20044;-75
2023/04/14 09:29:05;;;;;;;8.75;2.47;;;17.50;39.10;;;;;;5058487;28;20069;-76
2023/04/14 09:31:31;;;;;;;5.90;2.38;;;17.30;40.50;;;;;;5075698;28;20048;-76
2023/04/14 09:33:57;;;;;;;4.55;1.80;;;17.30;40.30;;;;;;5092117;28;20040;-75
2023/04/14 09:36:25;;;;;;;7.45;3.40;;;17.20;40.40;;;;;;5042231;28;20047;-75
2023/04/14 09:38:51;;;;;;;9.38;2.95;;;17.00;39.60;;;;;;5092458;28;20039;-76
2023/04/14 09:41:18;;;;;;;5.88;2.10;;;16.90;40.10;;;;;;5075216;28;20549;-75
2023/04/14 09:43:44;;;;;;;7.97;2.95;;;16.80;40.70;;;;;;5045425;28;20102;-75
2023/04/14 09:46:11;;;;;;;11.57;3.88;;;16.70;40.70;;;;;;5055323;28;20040;-75
2023/04/14 09:48:55;;;;;;;6.18;2.20;;;16.70;40.40;;;;;;5055008;28;20488;-75
2023/04/14 09:51:22;;;;;;;6.60;2.30;;;16.70;41.30;;;;;;5055151;28;20483;-75
2023/04/14 09:53:48;;;;;;;6.75;2.60;;;16.70;40.10;;;;;;5054994;28;20036;-75
2023/04/14 09:56:14;;;;;;;6.82;2.13;;;16.60;40.10;;;;;;5041221;28;20039;-75
2023/04/14 09:58:42;;;;;;;7.53;2.53;;;16.50;40.50;;;;;;5092149;28;20109;-75
2023/04/14 10:01:16;;;;;;;6.72;2.17;;;16.50;41.10;;;;;;5074943;28;20051;-75
2023/04/14 10:03:46;;;;;;;7.53;2.25;;;16.60;41.30;;;;;;5091999;28;20058;-75
2023/04/14 10:06:20;;;;;;;10.90;3.13;;;16.50;40.70;;;;;;5075052;28;20116;-75
2023/04/14 10:08:52;;;;;;;8.98;4.32;;;16.50;40.60;;;;;;5091646;28;20127;-75
2023/04/14 10:11:29;;;;;;;5.22;2.20;;;16.40;40.20;;;;;;5060113;28;20036;-75
2023/04/14 10:13:57;;;;;;;5.30;1.90;;;16.30;39.90;;;;;;5075107;28;20051;-75
2023/04/14 10:16:24;;;;;;;5.03;1.90;;;16.20;40.60;;;;;;5074765;28;20040;-75
2023/04/14 10:18:51;;;;;;;6.72;1.77;;;16.20;40.30;;;;;;5074775;28;20083;-75
2023/04/14 10:21:20;;;;;;;5.90;2.03;;;16.10;39.40;;;;;;5074638;28;20040;-75
2023/04/14 10:23:46;;;;;;;4.32;1.67;;;16.00;39.10;;;;;;5078594;28;20487;-75
2023/04/14 10:26:12;;;;;;;5.32;2.30;;;16.00;39.50;;;;;;5084888;28;20524;-75
2023/04/14 10:28:42;;;;;;;8.48;2.40;;;15.90;39.70;;;;;;5039320;28;20044;-75
2023/04/14 10:31:18;;;;;;;4.88;1.63;;;15.80;40.10;;;;;;5057319;28;20065;-75
2023/04/14 10:33:45;;;;;;;4.88;1.65;;;15.80;40.00;;;;;;5078758;28;20036;-75
2023/04/14 10:36:12;;;;;;;7.32;1.85;;;15.70;40.50;;;;;;5075276;28;20535;-75
2023/04/14 10:38:42;;;;;;;6.15;2.22;;;15.70;40.90;;;;;;5073515;28;20040;-75
2023/04/14 10:41:10;;;;;;;5.22;2.33;;;15.70;40.40;;;;;;5078674;28;20353;-75
2023/04/14 10:43:36;;;;;;;4.45;1.80;;;15.60;40.70;;;;;;5070840;28;20062;-75
2023/04/14 10:46:04;;;;;;;6.43;1.95;;;15.50;41.20;;;;;;5073858;28;20075;-76
2023/04/14 10:48:38;;;;;;;5.35;1.80;;;15.50;41.00;;;;;;5077244;28;20040;-76
2023/04/14 10:51:09;;;;;;;6.32;1.60;;;15.50;39.90;;;;;;5095674;28;20047;-76
2023/04/14 10:53:49;;;;;;;5.57;1.85;;;15.40;39.90;;;;;;5076226;28;20135;-76
2023/04/14 10:56:15;;;;;;;6.93;1.90;;;15.40;39.80;;;;;;5058381;28;20048;-76
2023/04/14 10:58:52;;;;;;;6.43;1.77;;;15.30;39.90;;;;;;5041749;28;20043;-76
2023/04/14 11:01:29;;;;;;;4.80;2.15;;;15.30;40.40;;;;;;5043379;28;20067;-76
2023/04/14 11:03:55;;;;;;;7.80;2.30;;;15.40;40.00;;;;;;5074658;28;20043;-76
2023/04/14 11:06:58;;;;;;;6.43;2.28;;;15.40;40.20;;;;;;5078597;28;20036;-79
2023/04/14 11:09:26;;;;;;;7.28;2.42;;;15.50;40.30;;;;;;5095337;28;20043;-76
2023/04/14 11:11:54;;;;;;;4.90;1.90;;;15.50;40.10;;;;;;5082613;28;20048;-77
2023/04/14 11:14:29;;;;;;;8.45;2.50;;;15.60;39.70;;;;;;5065027;28;20040;-76
2023/04/14 11:17:03;;;;;;;6.22;1.92;;;15.60;39.50;;;;;;5075135;28;20098;-77
2023/04/14 11:19:30;;;;;;;4.43;1.88;;;15.60;39.60;;;;;;5077383;28;20457;-76
2023/04/14 11:21:56;;;;;;;7.30;2.67;;;15.60;40.20;;;;;;5075306;28;20040;-77
2023/04/14 11:24:25;;;;;;;7.35;2.20;;;15.60;40.20;;;;;;5048172;28;20085;-77
2023/04/14 11:26:55;;;;;;;5.07;2.05;;;15.60;40.00;;;;;;5048018;28;20058;-77
2023/04/14 11:29:21;;;;;;;6.03;2.30;;;15.60;39.90;;;;;;5059808;28;20048;-77
2023/04/14 11:32:00;;;;;;;8.98;2.60;;;15.50;39.80;;;;;;5062949;28;20118;-76
2023/04/14 11:34:29;;;;;;;6.03;2.20;;;15.60;40.90;;;;;;5061199;28;20060;-75
2023/04/14 11:36:55;;;;;;;7.85;2.10;;;15.60;40.10;;;;;;5057538;28;20127;-76
2023/04/14 11:39:21;;;;;;;4.82;2.10;;;15.60;40.00;;;;;;5044876;28;20040;-77
2023/04/14 11:41:49;;;;;;;7.65;2.00;;;15.50;39.40;;;;;;5041218;28;20110;-77
2023/04/14 11:44:18;;;;;;;5.10;1.75;;;15.50;39.60;;;;;;5028927;28;20150;-76
2023/04/14 11:46:44;;;;;;;6.03;2.13;;;15.50;39.90;;;;;;5032861;28;20089;-76
2023/04/14 11:49:10;;;;;;;4.53;1.58;;;15.50;39.80;;;;;;5047120;28;20043;-76
2023/04/14 11:51:37;;;;;;;4.63;1.60;;;15.50;40.00;;;;;;5053580;28;20048;-77
2023/04/14 11:54:04;;;;;;;6.07;1.77;;;15.70;40.60;;;;;;5048424;28;20041;-77
2023/04/14 11:56:30;;;;;;;5.13;1.73;;;15.70;40.20;;;;;;5052196;28;20185;-77
2023/04/14 11:59:04;;;;;;;6.63;2.75;;;15.80;39.30;;;;;;5049350;28;20411;-75
2023/04/14 12:01:31;;;;;;;6.45;2.05;;;15.80;38.70;;;;;;5049989;28;20079;-76
2023/04/14 12:03:57;;;;;;;4.03;1.50;;;15.90;39.10;;;;;;5050477;28;20403;-77
2023/04/14 12:06:23;;;;;;;6.70;1.70;;;15.90;39.50;;;;;;5048277;28;20123;-78
2023/04/14 12:08:55;;;;;;;5.43;1.60;;;16.00;40.10;;;;;;5033385;28;20048;-78
2023/04/14 12:11:21;;;;;;;7.70;2.15;;;16.10;40.10;;;;;;5050381;28;20062;-78
2023/04/14 12:13:49;;;;;;;5.10;2.00;;;16.20;39.30;;;;;;5051892;28;20055;-78
2023/04/14 12:16:16;;;;;;;6.93;2.20;;;16.30;38.30;;;;;;5050501;28;20059;-77
2023/04/14 12:18:43;;;;;;;5.75;1.80;;;16.40;38.10;;;;;;5049176;28;20037;-77
2023/04/14 12:21:09;;;;;;;6.35;1.58;;;16.50;38.20;;;;;;5047977;28;20078;-76
2023/04/14 12:23:41;;;;;;;6.25;1.40;;;16.50;38.00;;;;;;5048830;28;20046;-76
2023/04/14 12:26:13;;;;;;;5.80;1.67;;;16.50;36.50;;;;;;5049228;28;20047;-77
2023/04/14 12:28:40;;;;;;;6.22;1.55;;;16.60;37.30;;;;;;5065685;28;20403;-77
2023/04/14 12:31:06;;;;;;;5.15;1.58;;;16.60;37.50;;;;;;5065808;28;20059;-75
2023/04/14 12:33:32;;;;;;;5.80;2.10;;;16.60;37.10;;;;;;5066861;28;20050;-76
2023/04/14 12:36:06;;;;;;;6.45;2.17;;;16.60;36.60;;;;;;5065836;28;21566;-76
2023/04/14 12:38:33;;;;;;;7.10;1.73;;;16.60;36.80;;;;;;5047933;28;20043;-76
2023/04/14 12:40:59;;;;;;;3.55;1.73;;;16.50;36.30;;;;;;5053534;28;20468;-76
2023/04/14 12:43:36;;;;;;;6.70;2.15;;;16.50;36.30;;;;;;5067866;28;20050;-76
2023/04/14 12:46:03;;;;;;;3.72;1.80;;;16.50;36.60;;;;;;5051643;28;20031;-75
2023/04/14 12:48:47;;;;;;;3.65;1.50;;;16.50;36.70;;;;;;5055427;28;20043;-75
2023/04/14 12:51:17;;;;;;;5.30;1.83;;;16.50;37.10;;;;;;5050993;28;20109;-75
2023/04/14 12:53:45;;;;;;;5.60;1.42;;;16.60;37.10;;;;;;5069511;28;20055;-75
2023/04/14 12:56:18;;;;;;;6.93;2.30;;;16.70;37.10;;;;;;5051392;28;20506;-75